Portada
METAR-TAF:

METAR-TAF

Aeropuertos :

Aeropuerto de Umiujaq

Umiujaq, Quebec, Canadá

latitud: 56-32N, longitud: 076-31W, altitud: 71 m

Observación

El informe se hizo hace 51 minutos, a las 20:00 UTC
Viento 12 kt del este con ráfagas de 22 kt
Temperatura -23°C
Humedad 76%
Presión 1022 hPa
Visibilidad: 22.5 km
Escasas nubes a una altura de 1100 ft
Escasas nubes a una altura de 18000 ft
Escasas nubes a una altura de 35000 ft
cristales de hielo, Ventisca baja de nieve

METAR: CYMU 112000Z 08012G22KT 14SM IC DRSN FEW011 FEW180 FEW350 M23/M26 A3018 RMK ST1AS1CI1 ST TR SLP235

Hora: 15:51 (20:51 UTC)


TAF: falta

Observaciones y pronósticos meteorológicos de más de 4000 aeropuertos (mensajes METAR y TAF).

Los puntos amarillos y rojos representan las estaciones disponibles.

Ponga el ratón en el punto deseado para ver el nombre de la estación.

Haga clic para ver las observaciones y los pronósticos meteorológicos.

Para cambiar el mapa : haga clic en los botones verdes con una cruz de color negro para hacer un zoom, en el botón verde con un guión para alejar o en las flechas verdes para mapas adyacentes.


METAR-TAF: